createdAt,value
2018-09-06T00:02:07.320Z,19.40
2018-09-06T00:04:35.038Z,19.50
2018-09-06T00:07:03.470Z,19.40
2018-09-06T00:09:31.177Z,19.40
2018-09-06T00:11:58.919Z,19.40
2018-09-06T00:14:26.650Z,19.40
2018-09-06T00:16:54.362Z,19.40
2018-09-06T00:19:22.066Z,19.40
2018-09-06T00:21:50.055Z,19.30
2018-09-06T00:24:17.777Z,19.20
2018-09-06T00:26:45.894Z,19.20
2018-09-06T00:29:13.719Z,19.30
2018-09-06T00:31:41.560Z,19.30
2018-09-06T00:34:09.910Z,19.30
2018-09-06T00:36:37.595Z,19.30
2018-09-06T00:39:06.548Z,19.40
2018-09-06T00:41:34.290Z,19.40
2018-09-06T00:44:02.371Z,19.30
2018-09-06T00:46:30.175Z,19.20
2018-09-06T00:48:58.264Z,19.20
2018-09-06T00:51:26.054Z,19.30
2018-09-06T00:53:53.784Z,19.40
2018-09-06T00:56:21.473Z,19.20
2018-09-06T00:58:49.225Z,19.10
2018-09-06T01:01:17.006Z,19.10
2018-09-06T01:03:44.687Z,19.10
2018-09-06T01:06:12.407Z,19.10
2018-09-06T01:08:40.141Z,19.10
2018-09-06T01:11:08.406Z,19.10
2018-09-06T01:13:36.098Z,19.10
2018-09-06T01:16:04.053Z,19.10
2018-09-06T01:18:31.795Z,19.10
2018-09-06T01:20:59.529Z,19.10
2018-09-06T01:23:27.729Z,19.20
2018-09-06T01:25:55.505Z,19.20
2018-09-06T01:28:23.173Z,19.10
2018-09-06T01:30:51.154Z,19.10
2018-09-06T01:33:18.854Z,19.20
2018-09-06T01:35:52.190Z,19.10
2018-09-06T01:38:19.940Z,19.10
2018-09-06T01:40:47.774Z,19.10
2018-09-06T01:43:15.501Z,19.20
2018-09-06T01:45:43.453Z,19.20
2018-09-06T01:48:11.214Z,19.30
2018-09-06T01:50:38.945Z,19.20
2018-09-06T01:53:06.757Z,19.10
2018-09-06T01:55:37.528Z,19.00
2018-09-06T01:58:05.260Z,19.00
2018-09-06T02:00:33.592Z,19.00
2018-09-06T02:03:01.497Z,19.00
2018-09-06T02:05:30.942Z,19.00
2018-09-06T02:07:59.802Z,19.00
2018-09-06T02:10:27.586Z,19.10
2018-09-06T02:12:55.750Z,19.10
2018-09-06T02:15:24.394Z,19.00
2018-09-06T02:17:52.111Z,18.90
2018-09-06T02:20:19.845Z,19.00
2018-09-06T02:22:47.539Z,19.00
2018-09-06T02:25:15.287Z,18.90
2018-09-06T02:27:42.970Z,18.90
2018-09-06T02:30:10.635Z,19.00
2018-09-06T02:32:38.670Z,19.00
2018-09-06T02:35:06.410Z,18.90
2018-09-06T02:37:37.437Z,18.90
2018-09-06T02:40:05.612Z,18.90
2018-09-06T02:42:33.330Z,18.90
2018-09-06T02:45:01.029Z,18.90
2018-09-06T02:47:29.019Z,18.90
2018-09-06T02:50:02.417Z,18.90
2018-09-06T02:52:30.151Z,18.80
2018-09-06T02:54:57.865Z,18.90
2018-09-06T02:57:25.574Z,18.90
2018-09-06T02:59:53.253Z,18.80
2018-09-06T03:02:21.026Z,18.80
2018-09-06T03:04:49.462Z,18.70
2018-09-06T03:07:17.184Z,18.70
2018-09-06T03:09:44.845Z,18.60
2018-09-06T03:12:12.672Z,18.60
2018-09-06T03:14:41.105Z,18.70
2018-09-06T03:17:08.849Z,18.70
2018-09-06T03:19:36.582Z,18.70
2018-09-06T03:22:04.295Z,18.60
2018-09-06T03:24:31.981Z,18.60
2018-09-06T03:26:59.821Z,18.60
2018-09-06T03:29:27.493Z,18.60
2018-09-06T03:31:55.190Z,18.60
2018-09-06T03:34:23.600Z,18.60
2018-09-06T03:36:51.370Z,18.60
2018-09-06T03:39:19.550Z,18.60
2018-09-06T03:41:47.275Z,18.50
2018-09-06T03:44:15.157Z,18.60
2018-09-06T03:46:42.909Z,18.60
2018-09-06T03:49:10.972Z,18.50
2018-09-06T03:51:38.685Z,18.60
2018-09-06T03:54:06.950Z,18.70
2018-09-06T03:56:34.646Z,18.80
2018-09-06T03:59:02.378Z,18.80
2018-09-06T04:01:30.042Z,18.70
2018-09-06T04:03:57.762Z,18.60
2018-09-06T04:06:25.458Z,18.60
2018-09-06T04:08:53.149Z,18.70
2018-09-06T04:11:20.971Z,18.80
2018-09-06T04:13:48.939Z,18.80
2018-09-06T04:16:16.722Z,18.80
2018-09-06T04:18:44.614Z,18.90
2018-09-06T04:21:12.273Z,18.90
2018-09-06T04:23:40.541Z,18.80
2018-09-06T04:26:08.237Z,18.70
2018-09-06T04:28:36.171Z,18.70
2018-09-06T04:31:03.842Z,18.70
2018-09-06T04:33:31.561Z,18.60
2018-09-06T04:36:00.063Z,18.60
2018-09-06T04:38:28.006Z,18.50
2018-09-06T04:40:55.699Z,18.50
2018-09-06T04:43:23.390Z,18.60
2018-09-06T04:45:51.304Z,18.70
2018-09-06T04:48:22.957Z,18.60
2018-09-06T04:50:50.883Z,18.60
2018-09-06T04:53:18.573Z,18.70
2018-09-06T04:55:46.421Z,18.80
2018-09-06T04:58:14.397Z,18.90
2018-09-06T05:00:42.114Z,18.80
2018-09-06T05:03:09.799Z,18.80
2018-09-06T05:05:37.477Z,18.70
2018-09-06T05:08:05.497Z,18.60
2018-09-06T05:10:33.525Z,18.50
2018-09-06T05:13:01.205Z,18.50
2018-09-06T05:15:29.075Z,18.50
2018-09-06T05:17:56.767Z,18.50
2018-09-06T05:20:24.535Z,18.50
2018-09-06T05:22:52.335Z,18.50
2018-09-06T05:25:20.115Z,18.50
2018-09-06T05:27:48.491Z,18.50
2018-09-06T05:30:16.204Z,18.40
2018-09-06T05:32:43.879Z,18.50
2018-09-06T05:35:11.644Z,18.50
2018-09-06T05:37:39.455Z,18.50
2018-09-06T05:40:07.190Z,18.60
2018-09-06T05:42:34.858Z,18.60
2018-09-06T05:45:02.773Z,18.70
2018-09-06T05:47:30.630Z,18.80
2018-09-06T05:49:58.330Z,18.70
2018-09-06T05:52:26.481Z,18.60
2018-09-06T05:54:54.440Z,18.60
2018-09-06T05:57:22.154Z,18.60
2018-09-06T05:59:50.098Z,18.70
2018-09-06T06:02:17.851Z,18.70
2018-09-06T06:04:45.551Z,18.70
2018-09-06T06:07:13.728Z,18.60
2018-09-06T06:09:41.937Z,18.50
2018-09-06T06:12:09.958Z,18.60
2018-09-06T06:14:37.809Z,18.60
2018-09-06T06:17:05.762Z,18.60
2018-09-06T06:19:34.241Z,18.70
2018-09-06T06:22:04.565Z,18.70
2018-09-06T06:24:32.283Z,18.80
2018-09-06T06:26:59.954Z,18.80
2018-09-06T06:29:27.633Z,19.00
2018-09-06T06:31:55.673Z,19.00
2018-09-06T06:34:23.341Z,19.00
2018-09-06T06:36:51.098Z,19.00
2018-09-06T06:39:20.153Z,18.90
2018-09-06T06:41:49.086Z,19.00
2018-09-06T06:44:16.809Z,19.00
2018-09-06T06:46:44.498Z,18.90
2018-09-06T06:49:12.168Z,19.00
2018-09-06T06:51:39.853Z,19.00
2018-09-06T06:54:07.852Z,19.00
2018-09-06T06:56:35.554Z,19.00
2018-09-06T06:59:03.286Z,19.00
2018-09-06T07:01:30.994Z,19.00
2018-09-06T07:03:58.678Z,19.00
2018-09-06T07:06:26.405Z,19.00
2018-09-06T07:08:54.111Z,19.10
2018-09-06T07:11:21.835Z,19.10
2018-09-06T07:13:49.526Z,19.10
2018-09-06T07:16:18.101Z,19.10
2018-09-06T07:18:45.949Z,19.30
2018-09-06T07:21:13.647Z,19.30
2018-09-06T07:23:41.354Z,19.40
2018-09-06T07:26:09.373Z,19.50
2018-09-06T07:28:37.065Z,19.50
2018-09-06T07:31:05.282Z,19.60
2018-09-06T07:33:34.978Z,19.60
2018-09-06T07:36:02.687Z,19.80
2018-09-06T07:38:30.376Z,19.90
2018-09-06T07:40:58.107Z,20.00
2018-09-06T07:43:26.606Z,20.00
2018-09-06T07:45:54.354Z,20.00
2018-09-06T07:48:22.060Z,20.00
2018-09-06T07:50:49.754Z,20.10
2018-09-06T07:53:17.461Z,20.10
2018-09-06T07:55:45.141Z,20.10
2018-09-06T07:58:12.838Z,20.00
2018-09-06T08:00:40.762Z,20.00
2018-09-06T08:03:10.070Z,19.90
2018-09-06T08:05:37.801Z,19.80
2018-09-06T08:08:05.561Z,19.90
2018-09-06T08:10:33.315Z,20.00
2018-09-06T08:13:01.486Z,19.80
2018-09-06T08:15:29.181Z,19.80
2018-09-06T08:17:56.914Z,19.70
2018-09-06T08:20:24.822Z,19.60
2018-09-06T08:22:52.559Z,19.60
2018-09-06T08:25:20.275Z,19.70
2018-09-06T08:27:48.005Z,19.70
2018-09-06T08:30:15.691Z,19.60
2018-09-06T08:32:43.400Z,19.50
2018-09-06T08:35:11.137Z,19.50
2018-09-06T08:37:38.933Z,19.30
2018-09-06T08:40:06.677Z,19.30
2018-09-06T08:42:34.429Z,19.30
2018-09-06T08:45:02.346Z,19.30
2018-09-06T08:47:30.301Z,19.30
2018-09-06T08:49:58.145Z,19.30
2018-09-06T08:52:25.893Z,19.50
2018-09-06T08:54:53.598Z,19.60
2018-09-06T08:57:21.373Z,19.90
2018-09-06T08:59:49.042Z,20.10
2018-09-06T09:02:16.882Z,20.40
2018-09-06T09:04:44.591Z,20.50
2018-09-06T09:07:12.347Z,20.90
2018-09-06T09:09:40.130Z,21.20
2018-09-06T09:12:07.907Z,21.40
2018-09-06T09:14:35.606Z,21.50
2018-09-06T09:17:04.048Z,21.30
2018-09-06T09:19:31.933Z,21.70
2018-09-06T09:21:59.750Z,21.60
2018-09-06T09:24:28.058Z,21.60
2018-09-06T09:26:55.773Z,21.20
2018-09-06T09:29:24.086Z,20.90
2018-09-06T09:31:51.851Z,20.50
2018-09-06T09:34:20.983Z,20.30
2018-09-06T09:36:48.870Z,20.20
2018-09-06T09:39:16.628Z,20.20
2018-09-06T09:41:44.342Z,20.10
2018-09-06T09:44:12.114Z,20.20
2018-09-06T09:49:07.173Z,20.30
2018-09-06T09:51:35.306Z,20.30
2018-09-06T09:54:03.109Z,20.30
2018-09-06T09:56:30.886Z,20.30
2018-09-06T09:58:59.195Z,20.50
2018-09-06T10:01:32.730Z,20.70
2018-09-06T10:04:06.143Z,20.80
2018-09-06T10:06:39.518Z,20.90
2018-09-06T10:09:26.721Z,21.00
2018-09-06T10:11:54.546Z,20.90
2018-09-06T10:14:22.331Z,21.20
2018-09-06T10:16:50.022Z,21.50
2018-09-06T10:19:17.882Z,21.70
2018-09-06T10:21:45.818Z,21.80
2018-09-06T10:24:13.649Z,21.50
2018-09-06T10:26:41.431Z,21.60
2018-09-06T10:29:09.240Z,21.60
2018-09-06T10:31:37.799Z,21.40
2018-09-06T10:34:05.733Z,21.40
2018-09-06T10:36:33.685Z,21.60
2018-09-06T10:39:01.408Z,21.80
2018-09-06T10:41:29.106Z,22.10
2018-09-06T10:43:56.869Z,22.00
2018-09-06T10:46:24.967Z,22.00
2018-09-06T10:48:52.734Z,22.00
2018-09-06T10:51:20.457Z,22.10
2018-09-06T10:53:48.462Z,22.10
2018-09-06T10:56:16.209Z,22.10
2018-09-06T10:58:44.030Z,21.80
2018-09-06T11:01:17.562Z,21.60
2018-09-06T11:03:45.512Z,21.50
2018-09-06T11:06:13.398Z,21.40
2018-09-06T11:08:41.676Z,21.30
2018-09-06T11:11:09.367Z,21.10
2018-09-06T11:13:37.210Z,21.10
2018-09-06T11:16:04.911Z,20.80
2018-09-06T11:18:32.622Z,20.60
2018-09-06T11:21:01.216Z,20.60
2018-09-06T11:23:30.266Z,20.60
2018-09-06T11:25:58.011Z,20.70
2018-09-06T11:28:25.690Z,20.80
2018-09-06T11:30:53.473Z,20.70
2018-09-06T11:33:21.228Z,20.70
2018-09-06T11:35:48.949Z,20.70
2018-09-06T11:38:16.722Z,20.80
2018-09-06T11:40:44.678Z,21.00
2018-09-06T11:43:12.374Z,21.20
2018-09-06T11:45:41.511Z,21.30
2018-09-06T11:48:09.558Z,21.30
2018-09-06T11:50:37.822Z,21.30
2018-09-06T11:53:05.491Z,21.40
2018-09-06T11:55:33.245Z,21.40
2018-09-06T11:58:00.982Z,21.50
2018-09-06T12:00:28.958Z,21.50
2018-09-06T12:02:56.790Z,21.50
2018-09-06T12:05:24.518Z,21.60
2018-09-06T12:07:52.265Z,21.50
2018-09-06T12:10:20.078Z,21.30
2018-09-06T12:12:47.771Z,21.50
2018-09-06T12:15:15.478Z,21.40
2018-09-06T12:17:43.502Z,21.20
2018-09-06T12:20:12.114Z,21.10
2018-09-06T12:22:39.794Z,21.20
2018-09-06T12:25:07.766Z,21.30
2018-09-06T12:27:35.995Z,21.50
2018-09-06T12:30:03.989Z,21.70
2018-09-06T12:32:31.762Z,21.80
2018-09-06T12:35:00.093Z,22.20
2018-09-06T12:37:27.953Z,22.40
2018-09-06T12:39:55.722Z,22.10
2018-09-06T12:42:23.583Z,22.20
2018-09-06T12:44:52.014Z,22.10
2018-09-06T12:47:19.811Z,22.20
2018-09-06T12:49:47.721Z,22.20
2018-09-06T12:52:16.306Z,22.50
2018-09-06T12:54:44.129Z,22.30
2018-09-06T12:57:12.075Z,22.10
2018-09-06T12:59:39.953Z,22.20
2018-09-06T13:02:07.687Z,22.10
2018-09-06T13:04:35.381Z,22.10
2018-09-06T13:07:03.658Z,22.30
2018-09-06T13:09:35.515Z,22.30
2018-09-06T13:12:04.133Z,22.40
2018-09-06T13:14:32.587Z,22.60
2018-09-06T13:17:00.412Z,23.20
2018-09-06T13:19:28.148Z,23.50
2018-09-06T13:21:55.897Z,24.30
2018-09-06T13:24:23.583Z,24.90
2018-09-06T13:26:51.326Z,24.80
2018-09-06T13:29:19.287Z,24.30
2018-09-06T13:31:47.109Z,24.30
2018-09-06T13:34:14.778Z,25.30
2018-09-06T13:36:42.473Z,25.90
2018-09-06T13:39:10.971Z,25.60
2018-09-06T13:41:38.709Z,25.20
2018-09-06T13:44:06.874Z,25.10
2018-09-06T13:46:34.765Z,25.00
2018-09-06T13:49:02.482Z,24.50
2018-09-06T13:51:30.206Z,24.50
2018-09-06T13:53:57.904Z,24.10
2018-09-06T13:56:26.066Z,24.10
2018-09-06T13:58:53.817Z,24.30
2018-09-06T14:01:21.595Z,24.40
2018-09-06T14:03:50.675Z,24.80
2018-09-06T14:06:19.226Z,24.90
2018-09-06T14:08:46.953Z,24.40
2018-09-06T14:11:14.872Z,24.10
2018-09-06T14:13:42.886Z,23.70
2018-09-06T14:16:10.661Z,23.50
2018-09-06T14:18:38.429Z,23.50
2018-09-06T14:21:06.225Z,23.20
2018-09-06T14:23:34.055Z,23.20
2018-09-06T14:26:01.693Z,22.90
2018-09-06T14:28:29.409Z,23.00
2018-09-06T14:30:57.082Z,23.40
2018-09-06T14:33:24.793Z,24.10
2018-09-06T14:35:52.605Z,24.20
2018-09-06T14:38:20.298Z,24.50
2018-09-06T14:40:47.985Z,24.00
2018-09-06T14:43:15.843Z,23.60
2018-09-06T14:45:43.611Z,23.40
2018-09-06T14:48:11.357Z,23.40
2018-09-06T14:50:39.100Z,24.10
2018-09-06T14:53:06.793Z,24.70
2018-09-06T14:55:34.534Z,24.80
2018-09-06T14:58:02.243Z,24.50
2018-09-06T15:00:29.938Z,24.50
2018-09-06T15:02:57.729Z,24.00
2018-09-06T15:05:25.401Z,23.70
2018-09-06T15:07:53.163Z,23.90
2018-09-06T15:10:22.570Z,23.60
2018-09-06T15:12:50.279Z,23.50
2018-09-06T15:15:18.235Z,23.30
2018-09-06T15:17:46.137Z,23.00
2018-09-06T15:20:14.580Z,22.80
2018-09-06T15:22:42.294Z,22.80
2018-09-06T15:25:10.000Z,22.60
2018-09-06T15:27:37.790Z,22.80
2018-09-06T15:30:05.946Z,23.10
2018-09-06T15:32:33.658Z,24.00
2018-09-06T15:35:01.619Z,24.20
2018-09-06T15:37:29.434Z,23.80
2018-09-06T15:39:57.190Z,23.40
2018-09-06T15:42:24.872Z,22.90
2018-09-06T15:44:52.686Z,22.60
2018-09-06T15:47:20.550Z,22.30
2018-09-06T15:49:48.368Z,22.30
2018-09-06T15:52:15.967Z,22.20
2018-09-06T15:54:43.731Z,22.30
2018-09-06T15:57:11.369Z,23.30
2018-09-06T15:59:39.028Z,24.70
2018-09-06T16:02:06.699Z,25.70
2018-09-06T16:04:34.361Z,25.30
2018-09-06T16:07:02.169Z,24.40
2018-09-06T16:09:29.897Z,23.70
2018-09-06T16:11:57.802Z,22.90
2018-09-06T16:14:25.987Z,22.30
2018-09-06T16:16:53.663Z,22.00
2018-09-06T16:19:21.481Z,21.80
2018-09-06T16:21:49.838Z,21.70
2018-09-06T16:24:17.503Z,21.50
2018-09-06T16:26:45.241Z,21.50
2018-09-06T16:29:12.941Z,21.50
2018-09-06T16:31:40.926Z,21.70
2018-09-06T16:34:08.706Z,21.60
2018-09-06T16:36:36.485Z,21.50
2018-09-06T16:39:06.402Z,21.30
2018-09-06T16:41:34.062Z,21.20
2018-09-06T16:44:01.818Z,21.00
2018-09-06T16:46:29.469Z,20.90
2018-09-06T16:48:57.335Z,20.60
2018-09-06T16:51:25.635Z,20.50
2018-09-06T16:53:53.362Z,20.40
2018-09-06T16:56:20.997Z,20.40
2018-09-06T16:58:48.819Z,20.30
2018-09-06T17:01:20.614Z,20.20
2018-09-06T17:03:48.250Z,20.50
2018-09-06T17:06:15.914Z,20.50
2018-09-06T17:08:43.590Z,20.50
2018-09-06T17:11:11.235Z,20.80
2018-09-06T17:13:39.105Z,21.60
2018-09-06T17:16:06.988Z,21.90
2018-09-06T17:18:34.746Z,22.00
2018-09-06T17:21:02.407Z,22.00
2018-09-06T17:23:30.095Z,21.60
2018-09-06T17:25:57.785Z,21.30
2018-09-06T17:28:25.450Z,21.00
2018-09-06T17:30:53.094Z,20.70
2018-09-06T17:33:20.743Z,20.40
2018-09-06T17:35:48.437Z,20.10
2018-09-06T17:38:16.142Z,19.80
2018-09-06T17:40:43.846Z,19.70
2018-09-06T17:43:11.515Z,19.70
2018-09-06T17:45:39.514Z,19.70
2018-09-06T17:48:07.229Z,19.70
2018-09-06T17:50:34.992Z,19.60
2018-09-06T17:53:02.862Z,19.50
2018-09-06T17:55:30.626Z,19.60
2018-09-06T17:57:58.345Z,19.40
2018-09-06T18:00:26.086Z,19.40
2018-09-06T18:02:53.817Z,19.30
2018-09-06T18:05:21.545Z,19.20
2018-09-06T18:07:49.441Z,19.20
2018-09-06T18:10:17.151Z,19.10
2018-09-06T18:12:44.889Z,19.10
2018-09-06T18:15:12.634Z,19.10
2018-09-06T18:17:40.373Z,19.00
2018-09-06T18:20:08.716Z,19.00
2018-09-06T18:22:37.711Z,18.90
2018-09-06T18:25:05.547Z,18.90
2018-09-06T18:27:33.334Z,18.90
2018-09-06T18:30:01.300Z,18.80
2018-09-06T18:32:29.026Z,18.80
2018-09-06T18:34:57.084Z,18.80
2018-09-06T18:37:25.410Z,18.80
2018-09-06T18:39:53.114Z,18.70
2018-09-06T18:42:20.866Z,18.70
2018-09-06T18:44:48.556Z,18.70
2018-09-06T18:47:16.199Z,18.70
2018-09-06T18:49:43.964Z,18.60
2018-09-06T18:52:11.606Z,18.60
2018-09-06T18:54:39.365Z,18.60
2018-09-06T18:57:07.234Z,18.50
2018-09-06T18:59:34.909Z,18.60
2018-09-06T19:02:02.650Z,18.60
2018-09-06T19:04:30.310Z,18.60
2018-09-06T19:06:57.971Z,18.60
2018-09-06T19:09:25.613Z,18.60
2018-09-06T19:11:53.293Z,18.50
2018-09-06T19:14:21.057Z,18.50
2018-09-06T19:16:48.754Z,18.50
2018-09-06T19:19:16.422Z,18.50
2018-09-06T19:21:44.846Z,18.50
2018-09-06T19:24:12.542Z,18.50
2018-09-06T19:26:40.228Z,18.50
2018-09-06T19:29:09.806Z,18.50
2018-09-06T19:31:37.556Z,18.40
2018-09-06T19:34:05.386Z,18.40
2018-09-06T19:36:33.082Z,18.30
2018-09-06T19:39:00.772Z,18.40
2018-09-06T19:41:28.698Z,18.50
2018-09-06T19:43:56.840Z,18.50
2018-09-06T19:46:24.521Z,18.50
2018-09-06T19:48:52.810Z,18.50
2018-09-06T19:51:21.291Z,18.40
2018-09-06T19:53:49.204Z,18.50
2018-09-06T19:56:16.877Z,18.40
2018-09-06T19:58:44.518Z,18.30
2018-09-06T20:01:12.217Z,18.30
2018-09-06T20:03:39.899Z,18.30
2018-09-06T20:06:07.646Z,18.30
2018-09-06T20:08:35.574Z,18.30
2018-09-06T20:11:03.310Z,18.20
2018-09-06T20:13:31.244Z,18.10
2018-09-06T20:15:58.943Z,18.10
2018-09-06T20:18:26.630Z,18.10
2018-09-06T20:20:54.298Z,18.10
2018-09-06T20:23:22.082Z,18.10
2018-09-06T20:25:49.742Z,18.10
2018-09-06T20:28:17.492Z,18.00
2018-09-06T20:30:45.118Z,18.00
2018-09-06T20:33:12.799Z,18.00
2018-09-06T20:35:40.463Z,17.90
2018-09-06T20:38:08.923Z,17.90
2018-09-06T20:40:36.567Z,17.90
2018-09-06T20:43:04.398Z,17.80
2018-09-06T20:45:32.106Z,17.80
2018-09-06T20:47:59.838Z,17.70
2018-09-06T20:50:27.498Z,17.70
2018-09-06T20:52:55.194Z,17.70
2018-09-06T20:55:23.029Z,17.50
2018-09-06T20:57:50.710Z,17.50
2018-09-06T21:00:18.356Z,17.60
2018-09-06T21:02:46.710Z,17.60
2018-09-06T21:05:14.441Z,17.50
2018-09-06T21:07:42.185Z,17.40
2018-09-06T21:10:09.857Z,17.30
2018-09-06T21:12:37.529Z,17.30
2018-09-06T21:15:05.213Z,17.30
2018-09-06T21:17:32.994Z,17.40
2018-09-06T21:20:00.849Z,17.20
2018-09-06T21:22:28.506Z,17.10
2018-09-06T21:24:56.220Z,17.10
2018-09-06T21:27:23.910Z,17.10
2018-09-06T21:29:51.563Z,17.10
2018-09-06T21:32:19.236Z,17.10
2018-09-06T21:34:46.950Z,17.10
2018-09-06T21:37:14.631Z,17.00
2018-09-06T21:39:42.690Z,16.90
2018-09-06T21:42:10.366Z,16.90
2018-09-06T21:44:39.295Z,16.80
2018-09-06T21:47:07.242Z,16.80
2018-09-06T21:49:34.925Z,16.80
2018-09-06T21:52:02.607Z,16.70
2018-09-06T21:54:30.251Z,16.80
2018-09-06T21:56:57.974Z,16.90
2018-09-06T21:59:25.654Z,16.90
2018-09-06T22:01:53.337Z,16.90
2018-09-06T22:04:21.441Z,17.00
2018-09-06T22:06:49.105Z,16.90
2018-09-06T22:09:16.870Z,16.90
2018-09-06T22:11:44.545Z,17.00
2018-09-06T22:14:12.598Z,16.80
2018-09-06T22:16:40.738Z,16.80
2018-09-06T22:19:08.521Z,16.80
2018-09-06T22:21:36.590Z,16.70
2018-09-06T22:24:04.621Z,16.70
2018-09-06T22:26:32.303Z,16.70
2018-09-06T22:28:59.977Z,16.70
2018-09-06T22:31:27.642Z,16.60
2018-09-06T22:33:55.297Z,16.60
2018-09-06T22:36:22.946Z,16.60
2018-09-06T22:38:50.614Z,16.60
2018-09-06T22:41:18.285Z,16.60
2018-09-06T22:43:45.966Z,16.60
2018-09-06T22:46:13.637Z,16.70
2018-09-06T22:48:41.851Z,16.70
2018-09-06T22:51:09.518Z,16.60
2018-09-06T22:53:37.321Z,16.50
2018-09-06T22:56:05.037Z,16.40
2018-09-06T22:58:32.719Z,16.40
2018-09-06T23:01:00.370Z,16.50
2018-09-06T23:03:33.548Z,16.40
2018-09-06T23:06:01.252Z,16.40
2018-09-06T23:08:28.925Z,16.30
2018-09-06T23:10:56.636Z,16.40
2018-09-06T23:13:24.352Z,16.50
2018-09-06T23:15:52.022Z,16.40
2018-09-06T23:18:19.738Z,16.40
2018-09-06T23:20:47.674Z,16.30
2018-09-06T23:23:16.122Z,16.30
2018-09-06T23:25:43.870Z,16.20
2018-09-06T23:28:11.641Z,16.10
2018-09-06T23:30:39.910Z,16.10
2018-09-06T23:33:07.952Z,16.10
2018-09-06T23:35:35.699Z,16.10
2018-09-06T23:38:03.530Z,16.10
2018-09-06T23:40:35.701Z,16.10
2018-09-06T23:43:03.882Z,16.10
2018-09-06T23:45:31.755Z,16.20
2018-09-06T23:47:59.450Z,16.20
2018-09-06T23:50:27.197Z,16.10
2018-09-06T23:52:54.948Z,16.20
2018-09-06T23:55:22.698Z,16.20
2018-09-06T23:57:52.290Z,16.20
